DW7431 Cala Millor ES current weather conditions

sailwx.info

Wind from 112 at 3 knots gusting 5

Air temperature 22.8° C
Dewpoint 19.1° C

Last reported at 2014-Sep-30 22:01 UTC.
Time now 2014-Sep-30 23:59 UTC

Location: N 39°36' E 003°22'.
View on Google Maps.

See reports from other nearby stations

  
Tides and Currents Weather Stations Pressure Air Temp Water Temp Dewpoint Dewpoint Depression Visibility Wind Speed Wind Dir Waves Ship Positions
date/time (UTC)wind fromknots sea level pressurealtimeterstation pressurevisibilityair tempwater tempwave heightnotes
2014-Sep-30 22:01 112 3 gusting 5 22.8
2014-Sep-30 20:01 022 4 gusting 4 23.3
2014-Sep-30 19:01 337 4 gusting 5 23.3
2014-Sep-30 15:01 180 7 gusting 12 27.2
2014-Sep-30 12:01 202 6 gusting 9 28.3
2014-Sep-30 10:01 270 3 gusting 4 26.7
2014-Sep-30 09:01 292 3 gusting 2 25.6
2014-Sep-30 07:01 337 4 gusting 6 21.1
2014-Sep-30 04:01 292 6 gusting 8 21.1
2014-Sep-30 02:01 315 1 gusting 4 22.2
2014-Sep-30 01:01 045 2 gusting 4 22.2
2014-Sep-30 00:01 022 3 gusting 6 22.2
2014-Sep-29 20:01 067 4 gusting 6 24.4
2014-Sep-29 17:01 090 0 gusting 0 26.7
2014-Sep-29 13:02 180 6 gusting 10 29.4
2014-Sep-29 12:02 180 6 gusting 10 29.4
2014-Sep-29 10:02 112 2 gusting 2 26.1
2014-Sep-29 09:02 180 3 gusting 3 26.7
2014-Sep-29 06:02 180 6 gusting 5 23.9
2014-Sep-29 04:02 135 1 gusting 1 23.3
2014-Sep-29 00:02 180 6 gusting 10 23.9